sensor_id;sensor_type;location;lat;lon;timestamp;P1;durP1;ratioP1;P2;durP2;ratioP2
12784;SDS011;6456;42.680;23.260;2022-10-16T00:00:37;10.33;;;7.40;;
12784;SDS011;6456;42.680;23.260;2022-10-16T00:03:08;10.67;;;6.90;;
12784;SDS011;6456;42.680;23.260;2022-10-16T00:05:39;9.73;;;7.10;;
12784;SDS011;6456;42.680;23.260;2022-10-16T00:08:08;10.57;;;6.93;;
12784;SDS011;6456;42.680;23.260;2022-10-16T00:10:37;8.37;;;7.10;;
12784;SDS011;6456;42.680;23.260;2022-10-16T00:13:06;10.60;;;7.03;;
12784;SDS011;6456;42.680;23.260;2022-10-16T00:15:34;10.97;;;7.07;;
12784;SDS011;6456;42.680;23.260;2022-10-16T00:18:02;7.27;;;6.53;;
12784;SDS011;6456;42.680;23.260;2022-10-16T00:20:30;7.77;;;6.77;;
12784;SDS011;6456;42.680;23.260;2022-10-16T00:23:02;11.13;;;7.63;;
12784;SDS011;6456;42.680;23.260;2022-10-16T00:25:29;8.40;;;7.03;;
12784;SDS011;6456;42.680;23.260;2022-10-16T00:27:58;8.47;;;6.40;;
12784;SDS011;6456;42.680;23.260;2022-10-16T00:30:26;7.33;;;6.60;;
12784;SDS011;6456;42.680;23.260;2022-10-16T00:32:54;7.03;;;6.33;;
12784;SDS011;6456;42.680;23.260;2022-10-16T00:35:21;8.70;;;6.23;;
12784;SDS011;6456;42.680;23.260;2022-10-16T00:37:48;7.83;;;6.67;;
12784;SDS011;6456;42.680;23.260;2022-10-16T00:40:15;10.07;;;6.97;;
12784;SDS011;6456;42.680;23.260;2022-10-16T00:42:42;8.03;;;6.87;;
12784;SDS011;6456;42.680;23.260;2022-10-16T00:45:09;9.27;;;6.90;;
12784;SDS011;6456;42.680;23.260;2022-10-16T00:47:38;8.93;;;6.97;;
12784;SDS011;6456;42.680;23.260;2022-10-16T00:50:08;9.20;;;6.60;;
12784;SDS011;6456;42.680;23.260;2022-10-16T00:52:41;7.53;;;6.67;;
12784;SDS011;6456;42.680;23.260;2022-10-16T00:55:10;9.17;;;6.80;;
12784;SDS011;6456;42.680;23.260;2022-10-16T00:57:37;10.57;;;6.73;;
12784;SDS011;6456;42.680;23.260;2022-10-16T01:00:06;10.07;;;6.13;;
12784;SDS011;6456;42.680;23.260;2022-10-16T01:02:36;7.53;;;6.63;;
12784;SDS011;6456;42.680;23.260;2022-10-16T01:05:04;8.80;;;6.37;;
12784;SDS011;6456;42.680;23.260;2022-10-16T01:07:34;8.73;;;6.33;;
12784;SDS011;6456;42.680;23.260;2022-10-16T01:10:13;9.23;;;7.17;;
12784;SDS011;6456;42.680;23.260;2022-10-16T01:12:52;8.20;;;6.57;;
12784;SDS011;6456;42.680;23.260;2022-10-16T01:15:25;6.80;;;6.10;;
12784;SDS011;6456;42.680;23.260;2022-10-16T01:18:00;7.57;;;6.60;;
12784;SDS011;6456;42.680;23.260;2022-10-16T01:20:33;8.43;;;6.37;;
12784;SDS011;6456;42.680;23.260;2022-10-16T01:25:58;8.40;;;6.70;;
12784;SDS011;6456;42.680;23.260;2022-10-16T01:28:36;8.23;;;6.20;;
12784;SDS011;6456;42.680;23.260;2022-10-16T01:31:07;8.20;;;6.77;;
12784;SDS011;6456;42.680;23.260;2022-10-16T01:33:38;9.03;;;6.93;;
12784;SDS011;6456;42.680;23.260;2022-10-16T01:36:09;6.27;;;5.57;;
12784;SDS011;6456;42.680;23.260;2022-10-16T01:38:40;8.47;;;6.77;;
12784;SDS011;6456;42.680;23.260;2022-10-16T01:41:09;7.63;;;5.83;;
12784;SDS011;6456;42.680;23.260;2022-10-16T01:43:42;7.30;;;6.23;;
12784;SDS011;6456;42.680;23.260;2022-10-16T01:46:13;8.27;;;6.57;;
12784;SDS011;6456;42.680;23.260;2022-10-16T01:48:43;7.67;;;6.53;;
12784;SDS011;6456;42.680;23.260;2022-10-16T01:51:12;8.33;;;6.40;;
12784;SDS011;6456;42.680;23.260;2022-10-16T01:53:41;7.40;;;6.37;;
12784;SDS011;6456;42.680;23.260;2022-10-16T01:56:12;8.57;;;6.40;;
12784;SDS011;6456;42.680;23.260;2022-10-16T01:58:44;10.43;;;6.77;;
12784;SDS011;6456;42.680;23.260;2022-10-16T02:01:13;7.87;;;6.40;;
12784;SDS011;6456;42.680;23.260;2022-10-16T02:03:43;8.57;;;6.27;;
12784;SDS011;6456;42.680;23.260;2022-10-16T02:06:12;9.37;;;6.40;;
12784;SDS011;6456;42.680;23.260;2022-10-16T02:08:39;8.67;;;6.93;;
12784;SDS011;6456;42.680;23.260;2022-10-16T02:11:09;7.87;;;7.07;;
12784;SDS011;6456;42.680;23.260;2022-10-16T02:13:37;9.23;;;6.47;;
12784;SDS011;6456;42.680;23.260;2022-10-16T02:16:10;8.33;;;6.57;;
12784;SDS011;6456;42.680;23.260;2022-10-16T02:18:37;9.53;;;6.40;;
12784;SDS011;6456;42.680;23.260;2022-10-16T02:21:07;9.00;;;6.77;;
12784;SDS011;6456;42.680;23.260;2022-10-16T02:23:43;8.20;;;6.33;;
12784;SDS011;6456;42.680;23.260;2022-10-16T02:26:27;8.23;;;7.13;;
12784;SDS011;6456;42.680;23.260;2022-10-16T02:28:59;7.97;;;7.17;;
12784;SDS011;6456;42.680;23.260;2022-10-16T02:31:31;10.93;;;7.73;;
12784;SDS011;6456;42.680;23.260;2022-10-16T02:34:02;11.20;;;7.83;;
12784;SDS011;6456;42.680;23.260;2022-10-16T02:36:31;9.83;;;8.10;;
12784;SDS011;6456;42.680;23.260;2022-10-16T02:39:01;11.30;;;8.53;;
12784;SDS011;6456;42.680;23.260;2022-10-16T02:41:30;10.43;;;8.20;;
12784;SDS011;6456;42.680;23.260;2022-10-16T02:43:57;12.53;;;8.27;;
12784;SDS011;6456;42.680;23.260;2022-10-16T02:46:24;8.13;;;6.87;;
12784;SDS011;6456;42.680;23.260;2022-10-16T02:48:52;8.40;;;7.07;;
12784;SDS011;6456;42.680;23.260;2022-10-16T02:51:19;9.37;;;7.20;;
12784;SDS011;6456;42.680;23.260;2022-10-16T02:53:46;11.23;;;8.00;;
12784;SDS011;6456;42.680;23.260;2022-10-16T02:56:12;10.17;;;7.90;;
12784;SDS011;6456;42.680;23.260;2022-10-16T02:58:39;9.07;;;7.60;;
12784;SDS011;6456;42.680;23.260;2022-10-16T03:01:06;10.53;;;8.33;;
12784;SDS011;6456;42.680;23.260;2022-10-16T03:03:33;8.40;;;7.47;;
12784;SDS011;6456;42.680;23.260;2022-10-16T03:06:02;9.73;;;8.70;;
12784;SDS011;6456;42.680;23.260;2022-10-16T03:08:29;9.73;;;8.60;;
12784;SDS011;6456;42.680;23.260;2022-10-16T03:10:56;9.37;;;8.40;;
12784;SDS011;6456;42.680;23.260;2022-10-16T03:13:23;12.37;;;8.83;;
12784;SDS011;6456;42.680;23.260;2022-10-16T03:15:49;7.93;;;7.13;;
12784;SDS011;6456;42.680;23.260;2022-10-16T03:18:18;8.97;;;7.43;;
12784;SDS011;6456;42.680;23.260;2022-10-16T03:20:45;11.43;;;8.73;;
12784;SDS011;6456;42.680;23.260;2022-10-16T03:23:14;9.27;;;7.93;;
12784;SDS011;6456;42.680;23.260;2022-10-16T03:25:40;10.20;;;7.53;;
12784;SDS011;6456;42.680;23.260;2022-10-16T03:28:07;9.17;;;7.17;;
12784;SDS011;6456;42.680;23.260;2022-10-16T03:30:34;14.03;;;9.77;;
12784;SDS011;6456;42.680;23.260;2022-10-16T03:33:01;10.77;;;9.63;;
12784;SDS011;6456;42.680;23.260;2022-10-16T03:35:28;10.77;;;9.60;;
12784;SDS011;6456;42.680;23.260;2022-10-16T03:37:55;11.93;;;10.73;;
12784;SDS011;6456;42.680;23.260;2022-10-16T03:40:23;13.87;;;9.47;;
12784;SDS011;6456;42.680;23.260;2022-10-16T03:42:50;9.93;;;8.87;;
12784;SDS011;6456;42.680;23.260;2022-10-16T03:45:19;9.77;;;8.37;;
12784;SDS011;6456;42.680;23.260;2022-10-16T03:47:46;8.43;;;7.50;;
12784;SDS011;6456;42.680;23.260;2022-10-16T03:50:13;8.80;;;7.83;;
12784;SDS011;6456;42.680;23.260;2022-10-16T03:52:40;8.97;;;7.13;;
12784;SDS011;6456;42.680;23.260;2022-10-16T03:55:07;10.73;;;8.03;;
12784;SDS011;6456;42.680;23.260;2022-10-16T03:57:36;9.17;;;8.20;;
12784;SDS011;6456;42.680;23.260;2022-10-16T04:00:03;8.47;;;7.20;;
12784;SDS011;6456;42.680;23.260;2022-10-16T04:02:31;9.47;;;7.50;;
12784;SDS011;6456;42.680;23.260;2022-10-16T04:04:58;11.90;;;7.13;;
12784;SDS011;6456;42.680;23.260;2022-10-16T04:07:24;8.33;;;7.43;;
12784;SDS011;6456;42.680;23.260;2022-10-16T04:09:51;12.77;;;8.23;;
12784;SDS011;6456;42.680;23.260;2022-10-16T04:12:18;10.90;;;8.60;;
12784;SDS011;6456;42.680;23.260;2022-10-16T04:14:47;10.10;;;8.40;;
12784;SDS011;6456;42.680;23.260;2022-10-16T04:17:13;11.67;;;7.60;;
12784;SDS011;6456;42.680;23.260;2022-10-16T04:19:40;10.97;;;8.47;;
12784;SDS011;6456;42.680;23.260;2022-10-16T04:22:07;8.67;;;7.40;;
12784;SDS011;6456;42.680;23.260;2022-10-16T04:24:34;13.90;;;7.80;;
12784;SDS011;6456;42.680;23.260;2022-10-16T04:27:01;9.80;;;7.40;;
12784;SDS011;6456;42.680;23.260;2022-10-16T04:29:28;9.27;;;8.23;;
12784;SDS011;6456;42.680;23.260;2022-10-16T04:31:56;9.23;;;8.23;;
12784;SDS011;6456;42.680;23.260;2022-10-16T04:34:23;10.90;;;8.63;;
12784;SDS011;6456;42.680;23.260;2022-10-16T04:36:53;13.27;;;9.17;;
12784;SDS011;6456;42.680;23.260;2022-10-16T04:39:20;12.03;;;8.87;;
12784;SDS011;6456;42.680;23.260;2022-10-16T04:41:47;11.97;;;8.73;;
12784;SDS011;6456;42.680;23.260;2022-10-16T04:44:14;8.57;;;7.67;;
12784;SDS011;6456;42.680;23.260;2022-10-16T04:46:41;8.97;;;8.07;;
12784;SDS011;6456;42.680;23.260;2022-10-16T04:49:10;9.27;;;8.40;;
12784;SDS011;6456;42.680;23.260;2022-10-16T04:51:37;11.53;;;8.67;;
12784;SDS011;6456;42.680;23.260;2022-10-16T04:54:04;11.13;;;9.20;;
12784;SDS011;6456;42.680;23.260;2022-10-16T04:56:31;9.63;;;8.23;;
12784;SDS011;6456;42.680;23.260;2022-10-16T04:59:05;11.10;;;7.87;;
12784;SDS011;6456;42.680;23.260;2022-10-16T05:01:32;11.33;;;8.73;;
12784;SDS011;6456;42.680;23.260;2022-10-16T05:03:59;8.60;;;7.30;;
12784;SDS011;6456;42.680;23.260;2022-10-16T05:06:27;9.30;;;7.93;;
12784;SDS011;6456;42.680;23.260;2022-10-16T05:08:54;9.73;;;7.77;;
12784;SDS011;6456;42.680;23.260;2022-10-16T05:11:21;10.10;;;7.97;;
12784;SDS011;6456;42.680;23.260;2022-10-16T05:13:48;12.17;;;8.17;;
12784;SDS011;6456;42.680;23.260;2022-10-16T05:16:14;10.67;;;8.60;;
12784;SDS011;6456;42.680;23.260;2022-10-16T05:18:41;14.07;;;9.10;;
12784;SDS011;6456;42.680;23.260;2022-10-16T05:21:08;14.20;;;8.97;;
12784;SDS011;6456;42.680;23.260;2022-10-16T05:23:37;12.80;;;9.20;;
12784;SDS011;6456;42.680;23.260;2022-10-16T05:26:04;15.37;;;9.90;;
12784;SDS011;6456;42.680;23.260;2022-10-16T05:28:31;11.73;;;9.40;;
12784;SDS011;6456;42.680;23.260;2022-10-16T05:30:58;9.90;;;8.80;;
12784;SDS011;6456;42.680;23.260;2022-10-16T05:33:25;15.23;;;9.60;;
12784;SDS011;6456;42.680;23.260;2022-10-16T05:35:52;12.63;;;9.23;;
12784;SDS011;6456;42.680;23.260;2022-10-16T05:40:56;12.30;;;8.77;;
12784;SDS011;6456;42.680;23.260;2022-10-16T05:43:23;9.40;;;8.40;;
12784;SDS011;6456;42.680;23.260;2022-10-16T05:45:54;11.90;;;9.20;;
12784;SDS011;6456;42.680;23.260;2022-10-16T05:48:21;11.17;;;9.83;;
12784;SDS011;6456;42.680;23.260;2022-10-16T05:50:48;11.83;;;9.63;;
12784;SDS011;6456;42.680;23.260;2022-10-16T05:53:23;13.07;;;10.10;;
12784;SDS011;6456;42.680;23.260;2022-10-16T05:55:51;12.00;;;10.30;;
12784;SDS011;6456;42.680;23.260;2022-10-16T05:58:20;11.53;;;9.77;;
12784;SDS011;6456;42.680;23.260;2022-10-16T06:00:52;13.40;;;10.33;;
12784;SDS011;6456;42.680;23.260;2022-10-16T06:03:20;11.90;;;10.53;;
12784;SDS011;6456;42.680;23.260;2022-10-16T06:05:47;12.50;;;10.50;;
12784;SDS011;6456;42.680;23.260;2022-10-16T06:08:14;11.70;;;9.70;;
12784;SDS011;6456;42.680;23.260;2022-10-16T06:10:41;15.37;;;10.70;;
12784;SDS011;6456;42.680;23.260;2022-10-16T06:13:08;32.97;;;20.00;;
12784;SDS011;6456;42.680;23.260;2022-10-16T06:15:37;29.83;;;20.17;;
12784;SDS011;6456;42.680;23.260;2022-10-16T06:18:06;20.17;;;13.77;;
12784;SDS011;6456;42.680;23.260;2022-10-16T06:20:33;16.90;;;12.13;;
12784;SDS011;6456;42.680;23.260;2022-10-16T06:23:00;17.33;;;12.00;;
12784;SDS011;6456;42.680;23.260;2022-10-16T06:25:29;16.77;;;11.23;;
12784;SDS011;6456;42.680;23.260;2022-10-16T06:27:55;12.23;;;10.93;;
12784;SDS011;6456;42.680;23.260;2022-10-16T06:30:22;14.47;;;11.03;;
12784;SDS011;6456;42.680;23.260;2022-10-16T06:32:51;17.10;;;12.73;;
12784;SDS011;6456;42.680;23.260;2022-10-16T06:35:17;17.63;;;12.13;;
12784;SDS011;6456;42.680;23.260;2022-10-16T06:37:44;20.13;;;15.40;;
12784;SDS011;6456;42.680;23.260;2022-10-16T06:40:11;19.53;;;15.07;;
12784;SDS011;6456;42.680;23.260;2022-10-16T06:42:39;21.20;;;14.77;;
12784;SDS011;6456;42.680;23.260;2022-10-16T06:45:06;18.03;;;13.67;;
12784;SDS011;6456;42.680;23.260;2022-10-16T06:47:34;15.23;;;12.83;;
12784;SDS011;6456;42.680;23.260;2022-10-16T06:50:02;14.90;;;13.03;;
12784;SDS011;6456;42.680;23.260;2022-10-16T06:52:31;16.50;;;12.27;;
12784;SDS011;6456;42.680;23.260;2022-10-16T06:54:58;14.27;;;12.27;;
12784;SDS011;6456;42.680;23.260;2022-10-16T06:57:25;15.13;;;12.90;;
12784;SDS011;6456;42.680;23.260;2022-10-16T06:59:52;13.80;;;12.33;;
12784;SDS011;6456;42.680;23.260;2022-10-16T07:02:19;18.60;;;12.20;;
12784;SDS011;6456;42.680;23.260;2022-10-16T07:04:46;13.80;;;12.17;;
12784;SDS011;6456;42.680;23.260;2022-10-16T07:07:14;16.97;;;12.93;;
12784;SDS011;6456;42.680;23.260;2022-10-16T07:09:41;18.80;;;12.93;;
12784;SDS011;6456;42.680;23.260;2022-10-16T07:12:08;17.50;;;12.53;;
12784;SDS011;6456;42.680;23.260;2022-10-16T07:14:34;14.03;;;12.20;;
12784;SDS011;6456;42.680;23.260;2022-10-16T07:17:02;19.37;;;13.50;;
12784;SDS011;6456;42.680;23.260;2022-10-16T07:19:29;15.03;;;13.30;;
12784;SDS011;6456;42.680;23.260;2022-10-16T07:21:56;16.37;;;14.17;;
12784;SDS011;6456;42.680;23.260;2022-10-16T07:24:24;18.50;;;13.43;;
12784;SDS011;6456;42.680;23.260;2022-10-16T07:26:51;14.47;;;12.97;;
12784;SDS011;6456;42.680;23.260;2022-10-16T07:29:18;16.20;;;12.20;;
12784;SDS011;6456;42.680;23.260;2022-10-16T07:31:47;19.47;;;12.37;;
12784;SDS011;6456;42.680;23.260;2022-10-16T07:34:15;13.93;;;12.33;;
12784;SDS011;6456;42.680;23.260;2022-10-16T07:36:43;14.80;;;12.07;;
12784;SDS011;6456;42.680;23.260;2022-10-16T07:39:11;14.77;;;12.07;;
12784;SDS011;6456;42.680;23.260;2022-10-16T07:41:39;16.80;;;12.03;;
12784;SDS011;6456;42.680;23.260;2022-10-16T07:44:06;22.07;;;12.50;;
12784;SDS011;6456;42.680;23.260;2022-10-16T07:46:33;14.07;;;11.87;;
12784;SDS011;6456;42.680;23.260;2022-10-16T07:49:01;15.87;;;12.03;;
12784;SDS011;6456;42.680;23.260;2022-10-16T07:51:28;15.30;;;10.97;;
12784;SDS011;6456;42.680;23.260;2022-10-16T07:53:55;16.30;;;12.27;;
12784;SDS011;6456;42.680;23.260;2022-10-16T07:56:22;16.47;;;12.80;;
12784;SDS011;6456;42.680;23.260;2022-10-16T07:58:51;15.10;;;11.83;;
12784;SDS011;6456;42.680;23.260;2022-10-16T08:01:18;14.33;;;12.07;;
12784;SDS011;6456;42.680;23.260;2022-10-16T08:03:46;16.50;;;12.60;;
12784;SDS011;6456;42.680;23.260;2022-10-16T08:06:14;17.53;;;13.23;;
12784;SDS011;6456;42.680;23.260;2022-10-16T08:08:41;17.07;;;13.67;;
12784;SDS011;6456;42.680;23.260;2022-10-16T08:11:08;20.90;;;15.40;;
12784;SDS011;6456;42.680;23.260;2022-10-16T08:13:35;16.33;;;12.87;;
12784;SDS011;6456;42.680;23.260;2022-10-16T08:16:06;16.03;;;13.13;;
12784;SDS011;6456;42.680;23.260;2022-10-16T08:18:35;15.57;;;13.30;;
12784;SDS011;6456;42.680;23.260;2022-10-16T08:21:02;15.97;;;13.00;;
12784;SDS011;6456;42.680;23.260;2022-10-16T08:23:30;23.63;;;13.07;;
12784;SDS011;6456;42.680;23.260;2022-10-16T08:26:01;14.47;;;10.50;;
12784;SDS011;6456;42.680;23.260;2022-10-16T08:28:29;14.33;;;10.63;;
12784;SDS011;6456;42.680;23.260;2022-10-16T08:31:03;14.07;;;9.67;;
12784;SDS011;6456;42.680;23.260;2022-10-16T08:33:32;14.37;;;9.70;;
12784;SDS011;6456;42.680;23.260;2022-10-16T08:36:00;10.37;;;8.50;;
12784;SDS011;6456;42.680;23.260;2022-10-16T08:38:27;8.33;;;7.20;;
12784;SDS011;6456;42.680;23.260;2022-10-16T08:40:54;13.33;;;8.20;;
12784;SDS011;6456;42.680;23.260;2022-10-16T08:43:43;10.80;;;7.53;;
12784;SDS011;6456;42.680;23.260;2022-10-16T08:46:33;8.33;;;7.17;;
12784;SDS011;6456;42.680;23.260;2022-10-16T08:49:05;7.97;;;6.63;;
12784;SDS011;6456;42.680;23.260;2022-10-16T08:51:38;7.60;;;6.80;;
12784;SDS011;6456;42.680;23.260;2022-10-16T08:54:06;9.17;;;6.43;;
12784;SDS011;6456;42.680;23.260;2022-10-16T08:56:49;7.87;;;6.13;;
12784;SDS011;6456;42.680;23.260;2022-10-16T08:59:16;6.77;;;5.53;;
12784;SDS011;6456;42.680;23.260;2022-10-16T09:01:47;8.50;;;5.90;;
12784;SDS011;6456;42.680;23.260;2022-10-16T09:04:30;8.80;;;6.47;;
12784;SDS011;6456;42.680;23.260;2022-10-16T09:07:12;6.57;;;5.30;;
12784;SDS011;6456;42.680;23.260;2022-10-16T09:09:49;6.13;;;5.47;;
12784;SDS011;6456;42.680;23.260;2022-10-16T09:12:25;7.27;;;4.87;;
12784;SDS011;6456;42.680;23.260;2022-10-16T09:14:59;7.33;;;5.10;;
12784;SDS011;6456;42.680;23.260;2022-10-16T09:17:39;5.83;;;5.03;;
12784;SDS011;6456;42.680;23.260;2022-10-16T09:20:18;4.93;;;4.40;;
12784;SDS011;6456;42.680;23.260;2022-10-16T09:22:52;6.37;;;4.33;;
12784;SDS011;6456;42.680;23.260;2022-10-16T09:25:28;4.87;;;4.37;;
12784;SDS011;6456;42.680;23.260;2022-10-16T09:27:55;6.23;;;3.70;;
12784;SDS011;6456;42.680;23.260;2022-10-16T09:30:22;6.40;;;3.70;;
12784;SDS011;6456;42.680;23.260;2022-10-16T09:32:57;4.70;;;3.90;;
12784;SDS011;6456;42.680;23.260;2022-10-16T09:35:26;4.90;;;4.03;;
12784;SDS011;6456;42.680;23.260;2022-10-16T09:37:59;7.17;;;4.10;;
12784;SDS011;6456;42.680;23.260;2022-10-16T09:40:26;7.57;;;3.97;;
12784;SDS011;6456;42.680;23.260;2022-10-16T09:42:58;10.00;;;4.40;;
12784;SDS011;6456;42.680;23.260;2022-10-16T09:45:30;4.67;;;3.70;;
12784;SDS011;6456;42.680;23.260;2022-10-16T09:48:00;4.77;;;3.87;;
12784;SDS011;6456;42.680;23.260;2022-10-16T09:50:36;5.00;;;3.60;;
12784;SDS011;6456;42.680;23.260;2022-10-16T09:53:04;4.87;;;3.77;;
12784;SDS011;6456;42.680;23.260;2022-10-16T09:55:32;5.07;;;3.37;;
12784;SDS011;6456;42.680;23.260;2022-10-16T09:57:59;5.00;;;4.07;;
12784;SDS011;6456;42.680;23.260;2022-10-16T10:00:26;6.00;;;3.40;;
12784;SDS011;6456;42.680;23.260;2022-10-16T10:02:53;8.07;;;3.57;;
12784;SDS011;6456;42.680;23.260;2022-10-16T10:05:23;4.03;;;3.53;;
12784;SDS011;6456;42.680;23.260;2022-10-16T10:07:54;4.67;;;3.37;;
12784;SDS011;6456;42.680;23.260;2022-10-16T10:10:23;3.53;;;3.13;;
12784;SDS011;6456;42.680;23.260;2022-10-16T10:12:52;4.77;;;2.90;;
12784;SDS011;6456;42.680;23.260;2022-10-16T10:15:20;4.10;;;3.37;;
12784;SDS011;6456;42.680;23.260;2022-10-16T10:17:50;4.33;;;3.37;;
12784;SDS011;6456;42.680;23.260;2022-10-16T10:20:23;5.63;;;3.57;;
12784;SDS011;6456;42.680;23.260;2022-10-16T10:22:52;4.27;;;3.20;;
12784;SDS011;6456;42.680;23.260;2022-10-16T10:25:32;3.53;;;3.07;;
12784;SDS011;6456;42.680;23.260;2022-10-16T10:30:56;5.93;;;3.73;;
12784;SDS011;6456;42.680;23.260;2022-10-16T10:33:29;5.23;;;3.57;;
12784;SDS011;6456;42.680;23.260;2022-10-16T10:36:12;4.10;;;3.60;;
12784;SDS011;6456;42.680;23.260;2022-10-16T10:38:52;6.67;;;3.50;;
12784;SDS011;6456;42.680;23.260;2022-10-16T10:41:38;6.63;;;3.87;;
12784;SDS011;6456;42.680;23.260;2022-10-16T10:44:31;4.03;;;3.40;;
12784;SDS011;6456;42.680;23.260;2022-10-16T10:47:23;4.57;;;3.50;;
12784;SDS011;6456;42.680;23.260;2022-10-16T10:50:02;3.50;;;3.20;;
12784;SDS011;6456;42.680;23.260;2022-10-16T10:52:43;4.97;;;3.03;;
12784;SDS011;6456;42.680;23.260;2022-10-16T10:55:21;4.50;;;3.50;;
12784;SDS011;6456;42.680;23.260;2022-10-16T10:58:06;3.60;;;3.20;;
12784;SDS011;6456;42.680;23.260;2022-10-16T11:00:48;4.00;;;2.87;;
12784;SDS011;6456;42.680;23.260;2022-10-16T11:03:29;4.33;;;3.23;;
12784;SDS011;6456;42.680;23.260;2022-10-16T11:06:08;4.80;;;3.30;;
12784;SDS011;6456;42.680;23.260;2022-10-16T11:08:45;4.97;;;3.50;;
12784;SDS011;6456;42.680;23.260;2022-10-16T11:11:19;4.03;;;3.23;;
12784;SDS011;6456;42.680;23.260;2022-10-16T11:13:53;4.70;;;3.17;;
12784;SDS011;6456;42.680;23.260;2022-10-16T11:16:26;4.73;;;3.10;;
12784;SDS011;6456;42.680;23.260;2022-10-16T11:18:56;4.43;;;3.10;;
12784;SDS011;6456;42.680;23.260;2022-10-16T11:21:30;7.97;;;3.93;;
12784;SDS011;6456;42.680;23.260;2022-10-16T11:24:06;5.23;;;2.97;;
12784;SDS011;6456;42.680;23.260;2022-10-16T11:26:42;6.10;;;3.20;;
12784;SDS011;6456;42.680;23.260;2022-10-16T11:29:13;3.23;;;2.80;;
12784;SDS011;6456;42.680;23.260;2022-10-16T11:31:44;3.57;;;3.10;;
12784;SDS011;6456;42.680;23.260;2022-10-16T11:34:15;4.40;;;3.63;;
12784;SDS011;6456;42.680;23.260;2022-10-16T11:36:48;3.70;;;3.30;;
12784;SDS011;6456;42.680;23.260;2022-10-16T11:39:21;3.73;;;3.10;;
12784;SDS011;6456;42.680;23.260;2022-10-16T11:41:52;4.10;;;3.00;;
12784;SDS011;6456;42.680;23.260;2022-10-16T11:44:27;3.30;;;3.00;;
12784;SDS011;6456;42.680;23.260;2022-10-16T11:47:06;3.50;;;3.03;;
12784;SDS011;6456;42.680;23.260;2022-10-16T11:49:39;2.67;;;2.47;;
12784;SDS011;6456;42.680;23.260;2022-10-16T11:52:10;4.87;;;3.07;;
12784;SDS011;6456;42.680;23.260;2022-10-16T11:54:45;3.10;;;2.20;;
12784;SDS011;6456;42.680;23.260;2022-10-16T11:57:19;6.60;;;3.30;;
12784;SDS011;6456;42.680;23.260;2022-10-16T11:59:50;3.97;;;2.67;;
12784;SDS011;6456;42.680;23.260;2022-10-16T12:02:33;6.23;;;2.77;;
12784;SDS011;6456;42.680;23.260;2022-10-16T12:05:14;3.30;;;3.00;;
12784;SDS011;6456;42.680;23.260;2022-10-16T12:07:51;3.50;;;2.87;;
12784;SDS011;6456;42.680;23.260;2022-10-16T12:10:29;3.67;;;2.70;;
12784;SDS011;6456;42.680;23.260;2022-10-16T12:13:02;3.53;;;2.37;;
12784;SDS011;6456;42.680;23.260;2022-10-16T12:15:30;2.43;;;2.23;;
12784;SDS011;6456;42.680;23.260;2022-10-16T12:17:58;2.60;;;2.40;;
12784;SDS011;6456;42.680;23.260;2022-10-16T12:20:27;2.50;;;2.30;;
12784;SDS011;6456;42.680;23.260;2022-10-16T12:22:57;4.70;;;2.60;;
12784;SDS011;6456;42.680;23.260;2022-10-16T12:25:28;2.80;;;2.60;;
12784;SDS011;6456;42.680;23.260;2022-10-16T12:27:59;6.93;;;2.97;;
12784;SDS011;6456;42.680;23.260;2022-10-16T12:30:31;3.43;;;2.90;;
12784;SDS011;6456;42.680;23.260;2022-10-16T12:33:01;4.60;;;2.97;;
12784;SDS011;6456;42.680;23.260;2022-10-16T12:35:30;5.47;;;3.10;;
12784;SDS011;6456;42.680;23.260;2022-10-16T12:38:14;5.97;;;3.07;;
12784;SDS011;6456;42.680;23.260;2022-10-16T12:40:44;6.00;;;2.97;;
12784;SDS011;6456;42.680;23.260;2022-10-16T12:43:27;3.80;;;3.17;;
12784;SDS011;6456;42.680;23.260;2022-10-16T12:46:04;3.20;;;2.90;;
12784;SDS011;6456;42.680;23.260;2022-10-16T12:48:46;2.80;;;2.60;;
12784;SDS011;6456;42.680;23.260;2022-10-16T12:51:21;3.50;;;2.47;;
12784;SDS011;6456;42.680;23.260;2022-10-16T12:53:57;3.47;;;2.50;;
12784;SDS011;6456;42.680;23.260;2022-10-16T12:56:28;4.40;;;2.73;;
12784;SDS011;6456;42.680;23.260;2022-10-16T12:59:09;4.57;;;2.27;;
12784;SDS011;6456;42.680;23.260;2022-10-16T13:01:57;3.20;;;2.60;;
12784;SDS011;6456;42.680;23.260;2022-10-16T13:04:53;3.03;;;2.73;;
12784;SDS011;6456;42.680;23.260;2022-10-16T13:07:41;3.10;;;2.80;;
12784;SDS011;6456;42.680;23.260;2022-10-16T13:10:22;3.53;;;2.73;;
12784;SDS011;6456;42.680;23.260;2022-10-16T13:13:09;4.87;;;2.90;;
12784;SDS011;6456;42.680;23.260;2022-10-16T13:15:55;3.97;;;3.60;;
12784;SDS011;6456;42.680;23.260;2022-10-16T13:18:29;6.10;;;2.80;;
12784;SDS011;6456;42.680;23.260;2022-10-16T13:21:08;3.47;;;2.43;;
12784;SDS011;6456;42.680;23.260;2022-10-16T13:23:47;3.90;;;2.63;;
12784;SDS011;6456;42.680;23.260;2022-10-16T13:26:21;3.73;;;2.43;;
12784;SDS011;6456;42.680;23.260;2022-10-16T13:29:00;4.10;;;2.87;;
12784;SDS011;6456;42.680;23.260;2022-10-16T13:31:27;5.57;;;3.10;;
12784;SDS011;6456;42.680;23.260;2022-10-16T13:33:56;3.87;;;2.50;;
12784;SDS011;6456;42.680;23.260;2022-10-16T13:36:26;5.60;;;2.43;;
12784;SDS011;6456;42.680;23.260;2022-10-16T13:39:02;6.47;;;2.70;;
12784;SDS011;6456;42.680;23.260;2022-10-16T13:41:37;5.40;;;2.60;;
12784;SDS011;6456;42.680;23.260;2022-10-16T13:44:07;7.00;;;2.60;;
12784;SDS011;6456;42.680;23.260;2022-10-16T13:46:40;4.30;;;2.50;;
12784;SDS011;6456;42.680;23.260;2022-10-16T13:49:11;2.47;;;2.27;;
12784;SDS011;6456;42.680;23.260;2022-10-16T13:51:39;3.63;;;2.60;;
12784;SDS011;6456;42.680;23.260;2022-10-16T13:54:07;4.27;;;3.30;;
12784;SDS011;6456;42.680;23.260;2022-10-16T13:56:38;4.67;;;2.73;;
12784;SDS011;6456;42.680;23.260;2022-10-16T13:59:22;6.10;;;2.50;;
12784;SDS011;6456;42.680;23.260;2022-10-16T14:01:51;2.93;;;2.73;;
12784;SDS011;6456;42.680;23.260;2022-10-16T14:04:20;17.03;;;3.70;;
12784;SDS011;6456;42.680;23.260;2022-10-16T14:06:49;4.90;;;2.93;;
12784;SDS011;6456;42.680;23.260;2022-10-16T14:09:20;8.33;;;2.83;;
12784;SDS011;6456;42.680;23.260;2022-10-16T14:11:51;2.20;;;2.10;;
12784;SDS011;6456;42.680;23.260;2022-10-16T14:14:22;4.83;;;2.33;;
12784;SDS011;6456;42.680;23.260;2022-10-16T14:16:49;3.87;;;2.60;;
12784;SDS011;6456;42.680;23.260;2022-10-16T14:19:18;4.67;;;3.47;;
12784;SDS011;6456;42.680;23.260;2022-10-16T14:21:48;4.27;;;2.43;;
12784;SDS011;6456;42.680;23.260;2022-10-16T14:24:23;2.17;;;1.90;;
12784;SDS011;6456;42.680;23.260;2022-10-16T14:26:52;3.43;;;2.40;;
12784;SDS011;6456;42.680;23.260;2022-10-16T14:29:23;3.37;;;2.40;;
12784;SDS011;6456;42.680;23.260;2022-10-16T14:31:54;2.53;;;2.13;;
12784;SDS011;6456;42.680;23.260;2022-10-16T14:34:23;3.70;;;2.23;;
12784;SDS011;6456;42.680;23.260;2022-10-16T14:36:57;3.20;;;2.33;;
12784;SDS011;6456;42.680;23.260;2022-10-16T14:39:27;2.37;;;2.17;;
12784;SDS011;6456;42.680;23.260;2022-10-16T14:41:55;2.80;;;2.50;;
12784;SDS011;6456;42.680;23.260;2022-10-16T14:44:28;5.20;;;2.20;;
12784;SDS011;6456;42.680;23.260;2022-10-16T14:46:57;4.70;;;2.70;;
12784;SDS011;6456;42.680;23.260;2022-10-16T14:49:24;4.40;;;2.80;;
12784;SDS011;6456;42.680;23.260;2022-10-16T14:51:53;8.97;;;3.10;;
12784;SDS011;6456;42.680;23.260;2022-10-16T14:54:20;3.53;;;2.53;;
12784;SDS011;6456;42.680;23.260;2022-10-16T14:56:47;4.03;;;2.70;;
12784;SDS011;6456;42.680;23.260;2022-10-16T14:59:17;2.67;;;2.43;;
12784;SDS011;6456;42.680;23.260;2022-10-16T15:01:49;5.30;;;2.40;;
12784;SDS011;6456;42.680;23.260;2022-10-16T15:04:16;6.90;;;3.03;;
12784;SDS011;6456;42.680;23.260;2022-10-16T15:06:43;3.83;;;2.57;;
12784;SDS011;6456;42.680;23.260;2022-10-16T15:09:10;4.67;;;2.50;;